createdAt,value
2018-05-01T00:00:06.053Z,3.37
2018-05-01T00:01:10.293Z,2.90
2018-05-01T00:02:15.406Z,4.07
2018-05-01T00:03:19.749Z,3.65
2018-05-01T00:04:24.148Z,4.22
2018-05-01T00:05:29.296Z,3.55
2018-05-01T00:06:35.395Z,2.75
2018-05-01T00:07:39.641Z,4.82
2018-05-01T00:08:44.943Z,3.42
2018-05-01T00:09:50.182Z,3.42
2018-05-01T00:10:55.658Z,3.40
2018-05-01T00:12:01.354Z,3.35
2018-05-01T00:13:06.765Z,2.78
2018-05-01T00:14:11.098Z,3.62
2018-05-01T00:15:16.578Z,4.20
2018-05-01T00:16:21.439Z,2.70
2018-05-01T00:17:27.387Z,3.65
2018-05-01T00:18:31.954Z,4.05
2018-05-01T00:19:37.620Z,3.12
2018-05-01T00:20:43.675Z,2.95
2018-05-01T00:21:47.884Z,3.20
2018-05-01T00:22:52.822Z,3.53
2018-05-01T00:23:57.819Z,3.75
2018-05-01T00:25:02.037Z,3.45
2018-05-01T00:26:07.009Z,4.10
2018-05-01T00:27:11.465Z,3.30
2018-05-01T00:28:15.672Z,3.58
2018-05-01T00:29:19.904Z,4.72
2018-05-01T00:30:25.199Z,2.85
2018-05-01T00:31:29.370Z,3.35
2018-05-01T00:32:33.565Z,2.58
2018-05-01T00:33:37.774Z,3.28
2018-05-01T00:34:41.912Z,3.03
2018-05-01T00:35:46.093Z,3.42
2018-05-01T00:36:51.221Z,2.80
2018-05-01T00:37:56.167Z,2.90
2018-05-01T00:39:00.317Z,2.70
2018-05-01T00:40:04.797Z,3.03
2018-05-01T00:41:09.403Z,2.65
2018-05-01T00:42:13.713Z,2.62
2018-05-01T00:43:18.250Z,2.80
2018-05-01T00:44:23.629Z,3.20
2018-05-01T00:45:27.871Z,4.65
2018-05-01T00:46:32.044Z,2.58
2018-05-01T00:47:36.523Z,2.78
2018-05-01T00:48:42.243Z,2.92
2018-05-01T00:49:48.160Z,3.78
2018-05-01T00:50:52.622Z,3.47
2018-05-01T00:51:57.766Z,2.37
2018-05-01T00:53:01.977Z,3.17
2018-05-01T00:54:06.168Z,2.80
2018-05-01T00:55:10.637Z,2.85
2018-05-01T00:56:47.424Z,3.08
2018-05-01T00:57:52.064Z,2.60
2018-05-01T00:58:56.255Z,2.12
2018-05-01T01:00:00.407Z,2.50
2018-05-01T01:01:04.597Z,4.50
2018-05-01T01:02:09.033Z,2.67
2018-05-01T01:03:13.332Z,2.45
2018-05-01T01:04:17.847Z,2.53
2018-05-01T01:05:22.037Z,3.50
2018-05-01T01:06:27.172Z,4.03
2018-05-01T01:07:31.364Z,2.70
2018-05-01T01:08:35.523Z,2.47
2018-05-01T01:09:39.839Z,2.62
2018-05-01T01:10:44.000Z,2.00
2018-05-01T01:11:49.410Z,2.65
2018-05-01T01:12:53.567Z,2.22
2018-05-01T01:13:58.868Z,3.75
2018-05-01T01:15:03.847Z,4.40
2018-05-01T01:16:08.729Z,3.05
2018-05-01T01:17:13.911Z,2.70
2018-05-01T01:18:18.147Z,2.35
2018-05-01T01:19:22.341Z,2.75
2018-05-01T01:20:26.857Z,3.50
2018-05-01T01:21:31.041Z,2.83
2018-05-01T01:22:35.207Z,3.20
2018-05-01T01:23:40.856Z,3.28
2018-05-01T01:24:45.360Z,2.47
2018-05-01T01:25:50.332Z,2.30
2018-05-01T01:26:54.561Z,2.10
2018-05-01T01:28:00.246Z,2.60
2018-05-01T01:29:05.156Z,3.72
2018-05-01T01:30:09.363Z,2.62
2018-05-01T01:31:14.985Z,2.80
2018-05-01T01:32:19.689Z,2.60
2018-05-01T01:33:24.619Z,4.97
2018-05-01T01:34:29.113Z,4.15
2018-05-01T01:35:33.007Z,2.53
2018-05-01T01:36:36.497Z,2.47
2018-05-01T01:37:40.020Z,2.80
2018-05-01T01:38:42.740Z,2.62
2018-05-01T01:39:45.540Z,2.60
2018-05-01T01:40:48.276Z,2.45
2018-05-01T01:41:50.995Z,2.65
2018-05-01T01:42:53.721Z,2.92
2018-05-01T01:43:56.437Z,2.40
2018-05-01T01:44:59.304Z,2.72
2018-05-01T01:46:02.424Z,2.40
2018-05-01T01:47:05.135Z,3.25
2018-05-01T01:48:08.607Z,2.62
2018-05-01T01:49:11.332Z,2.55
2018-05-01T01:50:14.079Z,2.90
2018-05-01T01:51:16.810Z,2.90
2018-05-01T01:52:19.520Z,2.28
2018-05-01T01:53:22.233Z,3.78
2018-05-01T01:54:25.063Z,2.25
2018-05-01T01:55:27.746Z,3.05
2018-05-01T01:56:30.473Z,2.28
2018-05-01T01:57:34.247Z,2.62
2018-05-01T01:58:38.010Z,4.55
2018-05-01T01:59:40.775Z,2.00
2018-05-01T02:00:43.651Z,2.25
2018-05-01T02:01:46.738Z,3.25
2018-05-01T02:02:49.663Z,2.20
2018-05-01T02:03:53.204Z,1.90
2018-05-01T02:04:55.974Z,2.17
2018-05-01T02:05:59.722Z,2.10
2018-05-01T02:07:03.255Z,2.40
2018-05-01T02:08:06.317Z,2.65
2018-05-01T02:09:09.086Z,2.20
2018-05-01T02:10:12.449Z,2.42
2018-05-01T02:11:16.016Z,2.28
2018-05-01T02:12:19.008Z,2.47
2018-05-01T02:13:24.259Z,2.25
2018-05-01T02:14:27.052Z,2.40
2018-05-01T02:15:29.936Z,2.35
2018-05-01T02:16:32.683Z,3.78
2018-05-01T02:17:35.451Z,2.35
2018-05-01T02:18:38.240Z,2.25
2018-05-01T02:19:41.014Z,2.10
2018-05-01T02:20:43.912Z,2.10
2018-05-01T02:21:46.673Z,2.00
2018-05-01T02:22:49.454Z,3.15
2018-05-01T02:23:52.183Z,2.53
2018-05-01T02:24:54.967Z,2.20
2018-05-01T02:25:57.737Z,2.20
2018-05-01T02:27:00.679Z,2.08
2018-05-01T02:28:04.155Z,1.92
2018-05-01T02:29:06.923Z,2.15
2018-05-01T02:30:10.487Z,1.90
2018-05-01T02:31:13.277Z,2.67
2018-05-01T02:32:16.076Z,2.30
2018-05-01T02:33:19.604Z,2.95
2018-05-01T02:34:22.337Z,2.22
2018-05-01T02:35:25.580Z,2.10
2018-05-01T02:36:28.310Z,2.00
2018-05-01T02:37:31.050Z,2.28
2018-05-01T02:38:34.588Z,2.00
2018-05-01T02:39:37.526Z,2.58
2018-05-01T02:40:41.075Z,2.30
2018-05-01T02:41:43.846Z,2.30
2018-05-01T02:42:46.848Z,2.30
2018-05-01T02:43:50.343Z,2.05
2018-05-01T02:44:53.836Z,2.65
2018-05-01T02:45:57.324Z,2.85
2018-05-01T02:47:01.126Z,2.20
2018-05-01T02:48:03.970Z,2.40
2018-05-01T02:49:06.737Z,2.65
2018-05-01T02:50:09.511Z,3.03
2018-05-01T02:51:12.543Z,1.90
2018-05-01T02:52:15.295Z,2.25
2018-05-01T02:53:18.296Z,2.40
2018-05-01T02:54:21.160Z,2.65
2018-05-01T02:55:23.892Z,2.70
2018-05-01T02:56:26.664Z,2.37
2018-05-01T02:57:30.349Z,2.05
2018-05-01T02:58:34.976Z,3.78
2018-05-01T02:59:38.552Z,2.83
2018-05-01T03:00:41.332Z,2.30
2018-05-01T03:01:45.336Z,2.90
2018-05-01T03:02:48.832Z,2.25
2018-05-01T03:03:52.314Z,2.20
2018-05-01T03:04:56.516Z,2.72
2018-05-01T03:06:00.060Z,3.10
2018-05-01T03:07:03.291Z,2.00
2018-05-01T03:08:07.744Z,2.15
2018-05-01T03:09:10.796Z,2.05
2018-05-01T03:10:13.598Z,2.25
2018-05-01T03:11:16.367Z,2.35
2018-05-01T03:12:19.217Z,2.15
2018-05-01T03:13:21.982Z,2.17
2018-05-01T03:14:25.016Z,2.00
2018-05-01T03:15:29.011Z,2.70
2018-05-01T03:16:32.276Z,2.10
2018-05-01T03:17:35.088Z,2.00
2018-05-01T03:18:39.114Z,2.30
2018-05-01T03:19:43.026Z,3.30
2018-05-01T03:20:47.697Z,2.00
2018-05-01T03:21:50.432Z,2.10
2018-05-01T03:22:53.216Z,2.10
2018-05-01T03:23:56.607Z,2.17
2018-05-01T03:24:59.408Z,2.28
2018-05-01T03:26:03.717Z,2.40
2018-05-01T03:27:07.333Z,2.15
2018-05-01T03:28:10.619Z,2.87
2018-05-01T03:29:13.759Z,2.20
2018-05-01T03:30:16.543Z,2.80
2018-05-01T03:31:20.101Z,2.12
2018-05-01T03:32:22.845Z,2.28
2018-05-01T03:33:26.311Z,2.70
2018-05-01T03:34:29.033Z,3.85
2018-05-01T03:35:32.035Z,2.55
2018-05-01T03:38:32.390Z,3.35
2018-05-01T03:39:35.595Z,2.10
2018-05-01T03:40:38.394Z,2.72
2018-05-01T03:41:43.433Z,2.10
2018-05-01T03:42:46.969Z,2.22
2018-05-01T03:43:49.712Z,2.30
2018-05-01T03:44:52.464Z,2.10
2018-05-01T03:45:55.220Z,3.30
2018-05-01T03:46:58.221Z,2.25
2018-05-01T03:48:02.494Z,2.20
2018-05-01T03:49:06.161Z,2.10
2018-05-01T03:50:08.920Z,2.40
2018-05-01T03:51:11.644Z,2.20
2018-05-01T03:52:14.381Z,2.40
2018-05-01T03:53:17.108Z,2.28
2018-05-01T03:54:19.843Z,4.47
2018-05-01T03:55:22.951Z,2.22
2018-05-01T03:56:27.591Z,2.00
2018-05-01T03:57:30.380Z,2.35
2018-05-01T03:58:33.178Z,2.80
2018-05-01T03:59:36.569Z,2.15
2018-05-01T04:00:39.770Z,2.70
2018-05-01T04:01:43.441Z,2.42
2018-05-01T04:02:46.449Z,2.42
2018-05-01T04:03:49.509Z,3.45
2018-05-01T04:04:53.405Z,3.22
2018-05-01T04:05:57.263Z,3.58
2018-05-01T04:07:00.577Z,2.67
2018-05-01T04:08:03.800Z,3.53
2018-05-01T04:09:07.058Z,3.85
2018-05-01T04:10:10.745Z,3.00
2018-05-01T04:11:14.853Z,4.45
2018-05-01T04:12:18.864Z,2.20
2018-05-01T04:13:21.605Z,2.12
2018-05-01T04:14:24.351Z,2.20
2018-05-01T04:15:29.742Z,2.85
2018-05-01T04:16:32.795Z,2.40
2018-05-01T04:17:36.069Z,2.35
2018-05-01T04:18:38.827Z,2.70
2018-05-01T04:19:45.001Z,3.10
2018-05-01T04:20:49.360Z,2.10
2018-05-01T04:21:52.409Z,3.85
2018-05-01T04:22:55.363Z,2.78
2018-05-01T04:23:58.863Z,2.50
2018-05-01T04:25:03.033Z,4.32
2018-05-01T04:26:06.675Z,3.47
2018-05-01T04:27:10.435Z,2.95
2018-05-01T04:28:13.474Z,4.25
2018-05-01T04:29:16.586Z,3.78
2018-05-01T04:30:19.365Z,3.60
2018-05-01T04:31:23.078Z,2.83
2018-05-01T04:32:27.324Z,3.58
2018-05-01T04:33:31.926Z,3.35
2018-05-01T04:34:34.960Z,3.55
2018-05-01T04:35:38.439Z,4.43
2018-05-01T04:36:43.438Z,4.32
2018-05-01T04:37:47.155Z,3.45
2018-05-01T04:38:49.879Z,4.22
2018-05-01T04:39:52.606Z,5.10
2018-05-01T04:40:56.988Z,3.05
2018-05-01T04:42:00.947Z,2.80
2018-05-01T04:43:04.018Z,4.97
2018-05-01T04:44:07.623Z,3.70
2018-05-01T04:45:11.320Z,4.05
2018-05-01T04:46:15.163Z,2.53
2018-05-01T04:47:17.963Z,3.80
2018-05-01T04:48:23.025Z,3.35
2018-05-01T04:49:26.616Z,3.35
2018-05-01T04:50:30.352Z,3.37
2018-05-01T04:51:34.629Z,3.55
2018-05-01T04:52:37.382Z,2.83
2018-05-01T04:53:40.140Z,4.43
2018-05-01T04:54:43.856Z,4.55
2018-05-01T04:55:47.453Z,3.45
2018-05-01T04:56:50.614Z,3.78
2018-05-01T04:57:53.412Z,2.90
2018-05-01T04:58:56.167Z,4.15
2018-05-01T04:59:59.070Z,4.15
2018-05-01T05:01:01.836Z,3.90
2018-05-01T05:02:05.048Z,4.68
2018-05-01T05:03:08.123Z,3.40
2018-05-01T05:04:11.975Z,5.93
2018-05-01T05:05:14.833Z,9.10
2018-05-01T05:06:19.371Z,3.33
2018-05-01T05:07:23.479Z,4.07
2018-05-01T05:08:26.252Z,3.95
2018-05-01T05:09:29.036Z,2.90
2018-05-01T05:10:32.754Z,3.85
2018-05-01T05:11:36.668Z,2.70
2018-05-01T05:12:39.660Z,3.47
2018-05-01T05:13:42.467Z,5.37
2018-05-01T05:14:45.249Z,3.80
2018-05-01T05:15:49.126Z,6.40
2018-05-01T05:16:52.109Z,4.62
2018-05-01T05:17:55.319Z,3.95
2018-05-01T05:18:58.875Z,3.60
2018-05-01T05:20:02.421Z,3.47
2018-05-01T05:21:05.164Z,6.22
2018-05-01T05:22:09.225Z,3.58
2018-05-01T05:23:12.359Z,3.47
2018-05-01T05:24:15.125Z,4.90
2018-05-01T05:25:18.364Z,4.22
2018-05-01T05:26:21.151Z,3.67
2018-05-01T05:27:24.030Z,4.97
2018-05-01T05:28:30.429Z,5.35
2018-05-01T05:29:33.359Z,3.40
2018-05-01T05:30:37.864Z,7.32
2018-05-01T05:31:41.967Z,4.10
2018-05-01T05:32:44.901Z,5.55
2018-05-01T05:33:47.678Z,4.90
2018-05-01T05:34:50.655Z,5.90
2018-05-01T05:35:53.593Z,6.55
2018-05-01T05:36:56.691Z,6.35
2018-05-01T05:38:00.807Z,5.12
2018-05-01T05:39:04.678Z,5.30
2018-05-01T05:40:07.877Z,6.60
2018-05-01T05:41:10.661Z,5.55
2018-05-01T05:42:13.542Z,6.15
2018-05-01T05:43:16.557Z,7.07
2018-05-01T05:44:20.178Z,5.43
2018-05-01T05:45:24.731Z,5.97
2018-05-01T05:46:27.547Z,5.70
2018-05-01T05:47:31.566Z,5.20
2018-05-01T05:48:35.047Z,5.18
2018-05-01T05:49:38.632Z,5.45
2018-05-01T05:50:41.847Z,6.72
2018-05-01T05:51:45.246Z,6.50
2018-05-01T05:52:48.655Z,6.57
2018-05-01T05:53:51.876Z,5.45
2018-05-01T05:54:54.926Z,7.62
2018-05-01T05:55:59.938Z,4.62
2018-05-01T05:57:03.204Z,4.62
2018-05-01T05:58:07.484Z,5.72
2018-05-01T05:59:11.538Z,10.20
2018-05-01T06:00:15.197Z,5.05
2018-05-01T06:01:21.175Z,4.62
2018-05-01T06:02:25.299Z,6.20
2018-05-01T06:03:42.415Z,12.10
2018-05-01T06:04:45.268Z,5.18
2018-05-01T06:05:49.365Z,6.32
2018-05-01T06:06:53.370Z,6.85
2018-05-01T06:07:57.933Z,6.18
2018-05-01T06:09:02.266Z,5.90
2018-05-01T06:10:05.051Z,7.15
2018-05-01T06:11:07.840Z,9.75
2018-05-01T06:12:12.078Z,3.83
2018-05-01T06:13:15.123Z,5.35
2018-05-01T06:14:19.449Z,5.93
2018-05-01T06:15:22.560Z,4.93
2018-05-01T06:16:25.920Z,6.35
2018-05-01T06:17:28.740Z,8.00
2018-05-01T06:18:31.547Z,5.93
2018-05-01T06:19:35.447Z,5.05
2018-05-01T06:20:39.891Z,8.73
2018-05-01T06:21:43.280Z,6.03
2018-05-01T06:22:46.102Z,6.30
2018-05-01T06:23:49.873Z,11.55
2018-05-01T06:24:52.876Z,4.37
2018-05-01T06:25:55.992Z,7.00
2018-05-01T06:26:58.802Z,5.70
2018-05-01T06:28:02.510Z,7.50
2018-05-01T06:29:06.344Z,6.28
2018-05-01T06:30:10.599Z,4.62
2018-05-01T06:31:17.179Z,6.37
2018-05-01T06:32:20.030Z,6.12
2018-05-01T06:33:23.560Z,4.60
2018-05-01T06:34:26.861Z,5.90
2018-05-01T06:35:30.052Z,12.30
2018-05-01T06:36:34.106Z,5.00
2018-05-01T06:37:37.738Z,3.97
2018-05-01T06:38:40.926Z,6.68
2018-05-01T06:39:43.737Z,5.00
2018-05-01T06:40:48.828Z,4.50
2018-05-01T06:41:51.560Z,5.40
2018-05-01T06:42:56.017Z,6.55
2018-05-01T06:43:59.590Z,5.00
2018-05-01T06:45:03.097Z,6.45
2018-05-01T06:46:06.624Z,5.43
2018-05-01T06:47:10.390Z,9.50
2018-05-01T06:48:14.047Z,4.82
2018-05-01T06:49:16.781Z,5.72
2018-05-01T06:50:21.887Z,8.85
2018-05-01T06:51:25.744Z,5.75
2018-05-01T06:52:29.486Z,5.07
2018-05-01T06:53:33.683Z,5.10
2018-05-01T06:54:39.060Z,4.25
2018-05-01T06:55:42.558Z,7.37
2018-05-01T06:56:47.089Z,4.32
2018-05-01T06:57:50.329Z,5.53
2018-05-01T06:58:53.408Z,7.47
2018-05-01T06:59:57.000Z,5.45
2018-05-01T07:01:01.650Z,5.43
2018-05-01T07:02:07.160Z,4.75
2018-05-01T07:03:10.894Z,6.65
2018-05-01T07:04:13.813Z,8.10
2018-05-01T07:05:16.881Z,5.60
2018-05-01T07:06:19.731Z,6.57
2018-05-01T07:07:23.419Z,4.97
2018-05-01T07:08:30.768Z,7.40
2018-05-01T07:09:37.490Z,5.57
2018-05-01T07:10:45.333Z,7.78
2018-05-01T07:11:49.893Z,5.70
2018-05-01T07:12:52.757Z,6.85
2018-05-01T07:13:55.539Z,6.32
2018-05-01T07:14:59.242Z,4.70
2018-05-01T07:16:03.545Z,4.20
2018-05-01T07:17:08.571Z,6.03
2018-05-01T07:18:12.935Z,7.85
2018-05-01T07:19:16.474Z,6.32
2018-05-01T07:20:24.808Z,7.22
2018-05-01T07:21:29.800Z,5.72
2018-05-01T07:22:34.313Z,5.30
2018-05-01T07:23:37.669Z,6.35
2018-05-01T07:24:40.694Z,6.28
2018-05-01T07:25:43.436Z,9.18
2018-05-01T07:26:46.916Z,9.05
2018-05-01T07:27:50.551Z,8.25
2018-05-01T07:28:55.288Z,7.97
2018-05-01T07:29:58.265Z,7.95
2018-05-01T07:31:02.785Z,5.47
2018-05-01T07:32:06.101Z,4.87
2018-05-01T07:33:09.936Z,4.05
2018-05-01T07:34:13.560Z,9.75
2018-05-01T07:35:16.678Z,8.48
2018-05-01T07:36:22.291Z,8.32
2018-05-01T07:37:25.926Z,6.43
2018-05-01T07:38:29.158Z,6.10
2018-05-01T07:39:32.375Z,8.52
2018-05-01T07:40:36.139Z,6.82
2018-05-01T07:41:38.951Z,6.18
2018-05-01T07:42:44.206Z,6.20
2018-05-01T07:43:49.712Z,7.35
2018-05-01T07:44:52.466Z,5.70
2018-05-01T07:45:55.987Z,8.35
2018-05-01T07:46:59.177Z,4.80
2018-05-01T07:48:01.927Z,4.87
2018-05-01T07:49:04.988Z,6.25
2018-05-01T07:50:08.746Z,4.68
2018-05-01T07:51:12.399Z,7.90
2018-05-01T07:52:16.324Z,5.05
2018-05-01T07:53:20.115Z,8.27
2018-05-01T07:54:23.935Z,7.45
2018-05-01T07:55:26.675Z,8.73
2018-05-01T07:56:29.433Z,5.35
2018-05-01T07:57:32.658Z,9.93
2018-05-01T07:58:39.805Z,7.20
2018-05-01T07:59:43.193Z,7.18
2018-05-01T08:00:46.199Z,9.65
2018-05-01T08:01:49.367Z,7.10
2018-05-01T08:02:54.923Z,6.75
2018-05-01T08:03:58.539Z,5.65
2018-05-01T08:05:02.857Z,5.80
2018-05-01T08:06:05.669Z,7.43
2018-05-01T08:07:10.688Z,7.50
2018-05-01T08:08:13.512Z,7.15
2018-05-01T08:09:17.221Z,8.48
2018-05-01T08:10:20.485Z,9.30
2018-05-01T08:11:25.165Z,7.40
2018-05-01T08:12:28.490Z,7.93
2018-05-01T08:13:32.064Z,9.43
2018-05-01T08:14:36.087Z,11.80
2018-05-01T08:15:38.904Z,7.80
2018-05-01T08:16:42.053Z,6.50
2018-05-01T08:17:47.627Z,5.47
2018-05-01T08:18:50.426Z,6.78
2018-05-01T08:19:54.929Z,8.77
2018-05-01T08:20:57.758Z,6.32
2018-05-01T08:22:04.162Z,4.53
2018-05-01T08:23:09.480Z,9.60
2018-05-01T08:24:13.128Z,6.18
2018-05-01T08:25:15.989Z,7.80
2018-05-01T08:26:19.123Z,10.13
2018-05-01T08:27:22.915Z,8.45
2018-05-01T08:28:29.881Z,9.30
2018-05-01T08:29:33.359Z,9.07
2018-05-01T08:30:36.225Z,10.10
2018-05-01T08:31:39.042Z,12.27
2018-05-01T08:32:42.672Z,7.80
2018-05-01T08:33:48.826Z,7.78
2018-05-01T08:34:52.598Z,13.05
2018-05-01T08:35:56.445Z,8.52
2018-05-01T08:36:59.630Z,8.52
2018-05-01T08:38:02.451Z,5.10
2018-05-01T08:39:05.521Z,8.35
2018-05-01T08:40:10.871Z,7.80
2018-05-01T08:41:15.105Z,8.45
2018-05-01T08:42:17.983Z,10.88
2018-05-01T08:43:20.881Z,6.68
2018-05-01T08:44:23.743Z,11.55
2018-05-01T08:45:26.673Z,7.85
2018-05-01T08:46:29.493Z,9.15
2018-05-01T08:47:32.407Z,10.15
2018-05-01T08:48:38.424Z,11.25
2018-05-01T08:49:42.290Z,11.02
2018-05-01T08:50:45.935Z,10.70
2018-05-01T08:51:49.504Z,6.97
2018-05-01T08:52:52.289Z,7.65
2018-05-01T08:53:55.445Z,10.88
2018-05-01T08:54:58.256Z,9.43
2018-05-01T08:56:01.987Z,15.48
2018-05-01T08:57:04.841Z,7.68
2018-05-01T08:58:09.352Z,15.35
2018-05-01T08:59:12.384Z,5.85
2018-05-01T09:00:15.331Z,19.40
2018-05-01T09:01:19.342Z,7.97
2018-05-01T09:02:24.342Z,7.82
2018-05-01T09:03:28.806Z,10.20
2018-05-01T09:04:32.949Z,9.88
2018-05-01T09:05:40.615Z,7.95
2018-05-01T09:06:44.983Z,10.32
2018-05-01T09:07:48.254Z,9.50
2018-05-01T09:08:53.287Z,6.25
2018-05-01T09:09:56.886Z,11.23
2018-05-01T09:11:02.669Z,9.35
2018-05-01T09:12:09.085Z,9.10
2018-05-01T09:13:12.481Z,10.05
2018-05-01T09:14:16.797Z,12.55
2018-05-01T09:15:20.336Z,7.43
2018-05-01T09:16:23.387Z,7.65
2018-05-01T09:17:26.380Z,10.68
2018-05-01T09:18:29.807Z,8.68
2018-05-01T09:19:34.131Z,11.05
2018-05-01T09:20:37.123Z,8.40
2018-05-01T09:21:41.515Z,9.48
2018-05-01T09:22:45.213Z,9.32
2018-05-01T09:23:48.007Z,7.65
2018-05-01T09:24:51.570Z,8.02
2018-05-01T09:25:58.043Z,7.82
2018-05-01T09:27:02.009Z,10.65
2018-05-01T09:28:04.880Z,7.65
2018-05-01T09:29:08.414Z,15.23
2018-05-01T09:30:12.169Z,10.35
2018-05-01T09:31:15.276Z,9.70
2018-05-01T09:32:20.609Z,8.90
2018-05-01T09:33:24.201Z,11.45
2018-05-01T09:34:27.761Z,8.15
2018-05-01T09:35:34.422Z,10.20
2018-05-01T09:36:38.823Z,8.40
2018-05-01T09:37:43.274Z,7.47
2018-05-01T09:38:46.284Z,15.88
2018-05-01T09:39:50.140Z,8.73
2018-05-01T09:40:53.761Z,8.10
2018-05-01T09:41:58.351Z,7.40
2018-05-01T09:43:04.884Z,10.27
2018-05-01T09:44:08.424Z,7.95
2018-05-01T09:45:12.732Z,8.50
2018-05-01T09:46:15.585Z,9.45
2018-05-01T09:47:19.899Z,11.27
2018-05-01T09:48:23.852Z,11.12
2018-05-01T09:49:29.769Z,11.23
2018-05-01T09:50:34.543Z,8.95
2018-05-01T09:51:38.298Z,13.52
2018-05-01T09:52:44.475Z,11.38
2018-05-01T09:53:49.958Z,8.90
2018-05-01T09:54:55.039Z,9.10
2018-05-01T09:56:00.975Z,9.60
2018-05-01T09:57:07.407Z,6.90
2018-05-01T09:58:12.029Z,8.52
2018-05-01T09:59:18.124Z,7.45
2018-05-01T10:00:25.341Z,8.50
2018-05-01T10:01:29.722Z,12.57
2018-05-01T10:02:34.366Z,10.50
2018-05-01T10:03:39.404Z,10.55
2018-05-01T10:04:48.500Z,9.35
2018-05-01T10:05:53.104Z,7.35
2018-05-01T10:06:58.068Z,8.20
2018-05-01T10:08:02.578Z,14.02
2018-05-01T10:09:07.236Z,11.35
2018-05-01T10:10:12.707Z,8.68
2018-05-01T10:11:19.165Z,8.73
2018-05-01T10:12:23.930Z,11.80
2018-05-01T10:13:29.219Z,13.73
2018-05-01T10:14:34.183Z,11.38
2018-05-01T10:15:40.257Z,10.27
2018-05-01T10:16:45.044Z,8.85
2018-05-01T10:17:49.325Z,13.10
2018-05-01T10:18:54.811Z,7.37
2018-05-01T10:20:00.350Z,7.82
2018-05-01T10:21:05.354Z,14.07
2018-05-01T10:22:10.010Z,10.38
2018-05-01T10:23:15.201Z,12.88
2018-05-01T10:24:31.315Z,10.50
2018-05-01T10:25:36.186Z,12.05
2018-05-01T10:26:46.793Z,7.87
2018-05-01T10:27:54.169Z,8.60
2018-05-01T10:29:00.506Z,8.07
2018-05-01T10:30:05.503Z,7.75
2018-05-01T10:31:10.788Z,11.52
2018-05-01T10:32:18.249Z,9.82
2018-05-01T10:33:24.184Z,6.80
2018-05-01T10:34:29.910Z,8.55
2018-05-01T10:35:34.772Z,12.15
2018-05-01T10:36:39.033Z,12.27
2018-05-01T10:37:44.018Z,11.43
2018-05-01T10:38:49.352Z,10.48
2018-05-01T10:39:55.544Z,9.50
2018-05-01T10:41:03.372Z,11.52
2018-05-01T10:42:08.766Z,9.20
2018-05-01T10:43:14.525Z,8.35
2018-05-01T10:44:21.583Z,10.57
2018-05-01T10:45:28.902Z,12.45
2018-05-01T10:46:34.031Z,7.60
2018-05-01T10:47:39.405Z,9.55
2018-05-01T10:48:46.444Z,11.63
2018-05-01T10:49:51.289Z,16.30
2018-05-01T10:50:56.815Z,14.68
2018-05-01T10:52:02.824Z,12.95
2018-05-01T10:53:08.715Z,13.10
2018-05-01T10:54:13.271Z,17.12
2018-05-01T10:55:19.005Z,15.63
2018-05-01T10:56:25.526Z,14.55
2018-05-01T10:57:31.804Z,13.50
2018-05-01T10:58:45.395Z,16.10
2018-05-01T10:59:52.664Z,17.33
2018-05-01T11:00:59.015Z,12.10
2018-05-01T11:02:04.128Z,12.77
2018-05-01T11:03:48.175Z,15.23
2018-05-01T11:04:55.114Z,13.73
2018-05-01T11:06:00.730Z,19.35
2018-05-01T11:07:06.740Z,12.65
2018-05-01T11:08:11.864Z,17.00
2018-05-01T11:09:16.745Z,14.55
2018-05-01T11:10:22.403Z,13.07
2018-05-01T11:11:30.458Z,18.35
2018-05-01T11:12:35.018Z,14.18
2018-05-01T11:13:40.446Z,17.10
2018-05-01T11:14:45.709Z,11.48
2018-05-01T11:15:50.606Z,11.93
2018-05-01T11:16:56.519Z,16.83
2018-05-01T11:18:02.049Z,13.23
2018-05-01T11:19:08.234Z,18.37
2018-05-01T11:20:14.328Z,9.73
2018-05-01T11:21:21.245Z,15.50
2018-05-01T11:22:27.001Z,11.20
2018-05-01T11:23:31.557Z,13.50
2018-05-01T11:24:41.354Z,12.43
2018-05-01T11:25:48.787Z,13.73
2018-05-01T11:26:56.233Z,18.30
2018-05-01T11:28:01.381Z,16.65
2018-05-01T11:29:07.910Z,10.40
2018-05-01T11:30:12.963Z,17.33
2018-05-01T11:31:18.332Z,17.05
2018-05-01T11:32:24.028Z,10.52
2018-05-01T11:33:28.569Z,17.77
2018-05-01T11:34:35.773Z,14.18
2018-05-01T11:35:40.924Z,16.87
2018-05-01T11:36:45.408Z,12.90
2018-05-01T11:37:50.762Z,19.10
2018-05-01T11:38:56.284Z,19.05
2018-05-01T11:40:01.269Z,18.00
2018-05-01T11:41:07.620Z,17.40
2018-05-01T11:42:14.287Z,21.25
2018-05-01T11:43:21.923Z,25.08
2018-05-01T11:44:29.755Z,16.10
2018-05-01T11:45:35.819Z,13.95
2018-05-01T11:46:43.692Z,17.80
2018-05-01T11:47:51.023Z,12.65
2018-05-01T11:48:55.937Z,13.65
2018-05-01T11:50:00.460Z,13.52
2018-05-01T11:51:07.348Z,14.10
2018-05-01T11:52:13.058Z,14.63
2018-05-01T11:53:20.923Z,11.27
2018-05-01T11:54:25.267Z,13.18
2018-05-01T11:55:30.680Z,17.87
2018-05-01T11:56:40.599Z,16.95
2018-05-01T11:57:47.043Z,14.75
2018-05-01T11:58:52.094Z,12.30
2018-05-01T11:59:56.653Z,14.27
2018-05-01T12:01:02.815Z,11.85
2018-05-01T12:02:09.015Z,14.95
2018-05-01T12:03:14.506Z,12.50
2018-05-01T12:04:21.459Z,16.00
2018-05-01T12:05:29.276Z,14.50
2018-05-01T12:06:36.715Z,14.30
2018-05-01T12:07:42.092Z,11.75
2018-05-01T12:08:49.944Z,16.27
2018-05-01T12:09:55.661Z,17.73
2018-05-01T12:10:59.936Z,13.73
2018-05-01T12:12:05.543Z,10.00
2018-05-01T12:13:09.935Z,18.58
2018-05-01T12:14:15.914Z,16.15
2018-05-01T12:15:21.905Z,13.68
2018-05-01T12:16:26.748Z,14.15
2018-05-01T12:17:32.999Z,14.27
2018-05-01T12:18:38.268Z,13.43
2018-05-01T12:19:43.392Z,13.07
2018-05-01T12:20:49.403Z,15.43
2018-05-01T12:21:54.731Z,13.07
2018-05-01T12:23:03.989Z,16.55
2018-05-01T12:24:09.561Z,16.12
2018-05-01T12:25:19.408Z,19.25
2018-05-01T12:26:24.448Z,18.48
2018-05-01T12:27:29.428Z,13.50
2018-05-01T12:28:36.904Z,12.60
2018-05-01T12:29:43.109Z,13.80
2018-05-01T12:30:48.400Z,15.13
2018-05-01T12:31:53.601Z,21.85
2018-05-01T12:32:59.797Z,16.02
2018-05-01T12:34:06.136Z,18.40
2018-05-01T12:35:11.925Z,14.18
2018-05-01T12:36:16.865Z,13.88
2018-05-01T12:37:24.698Z,13.23
2018-05-01T12:38:29.732Z,12.18
2018-05-01T12:39:35.548Z,12.02
2018-05-01T12:40:40.834Z,11.60
2018-05-01T12:41:46.097Z,19.25
2018-05-01T12:42:51.177Z,15.50
2018-05-01T12:43:56.167Z,14.02
2018-05-01T12:45:03.620Z,18.35
2018-05-01T12:46:11.818Z,14.35
2018-05-01T12:47:17.918Z,16.85
2018-05-01T12:48:24.358Z,15.38
2018-05-01T12:49:29.444Z,16.17
2018-05-01T12:50:36.531Z,17.65
2018-05-01T12:51:42.440Z,22.02
2018-05-01T12:52:47.836Z,15.93
2018-05-01T12:53:53.871Z,14.63
2018-05-01T12:55:05.044Z,14.27
2018-05-01T12:56:10.289Z,16.30
2018-05-01T12:57:15.571Z,16.48
2018-05-01T12:58:22.635Z,18.65
2018-05-01T12:59:28.557Z,16.30
2018-05-01T13:00:35.431Z,18.62
2018-05-01T13:01:42.323Z,19.42
2018-05-01T13:02:51.292Z,19.75
2018-05-01T13:03:56.461Z,17.98
2018-05-01T13:05:02.765Z,16.10
2018-05-01T13:06:08.284Z,16.35
2018-05-01T13:07:13.739Z,19.50
2018-05-01T13:08:18.894Z,17.02
2018-05-01T13:09:24.192Z,15.95
2018-05-01T13:10:29.622Z,15.32
2018-05-01T13:11:35.118Z,15.95
2018-05-01T13:12:41.161Z,17.85
2018-05-01T13:13:46.033Z,13.57
2018-05-01T13:14:51.179Z,15.18
2018-05-01T13:15:56.342Z,16.95
2018-05-01T13:17:03.542Z,15.63
2018-05-01T13:18:09.361Z,15.70
2018-05-01T13:19:15.420Z,12.90
2018-05-01T13:20:22.035Z,13.48
2018-05-01T13:21:26.428Z,11.30
2018-05-01T13:22:31.933Z,16.75
2018-05-01T13:23:41.962Z,14.43
2018-05-01T13:24:49.082Z,14.18
2018-05-01T13:25:53.899Z,15.65
2018-05-01T13:27:00.265Z,14.77
2018-05-01T13:28:07.537Z,14.38
2018-05-01T13:29:15.828Z,13.70
2018-05-01T13:30:22.128Z,14.90
2018-05-01T13:31:28.175Z,13.62
2018-05-01T13:32:36.029Z,12.80
2018-05-01T13:33:40.544Z,12.37
2018-05-01T13:34:45.869Z,17.08
2018-05-01T13:35:51.045Z,13.52
2018-05-01T13:36:56.255Z,12.13
2018-05-01T13:38:04.136Z,10.70
2018-05-01T13:39:10.189Z,13.75
2018-05-01T13:40:16.894Z,10.57
2018-05-01T13:41:25.352Z,12.23
2018-05-01T13:42:31.291Z,12.90
2018-05-01T13:43:38.315Z,12.10
2018-05-01T13:44:45.231Z,15.65
2018-05-01T13:45:51.646Z,13.73
2018-05-01T13:46:56.861Z,18.12
2018-05-01T13:48:03.086Z,12.30
2018-05-01T13:49:07.479Z,12.95
2018-05-01T13:50:12.971Z,13.95
2018-05-01T13:51:18.018Z,11.23
2018-05-01T13:52:27.457Z,10.55
2018-05-01T13:53:43.242Z,14.20
2018-05-01T13:54:48.951Z,13.23
2018-05-01T13:55:55.701Z,11.32
2018-05-01T13:57:01.886Z,9.60
2018-05-01T13:58:07.285Z,11.77
2018-05-01T13:59:13.126Z,15.73
2018-05-01T14:00:20.089Z,12.25
2018-05-01T14:01:25.578Z,11.75
2018-05-01T14:02:30.740Z,13.32
2018-05-01T14:03:36.061Z,11.80
2018-05-01T14:04:41.106Z,15.75
2018-05-01T14:05:47.530Z,10.32
2018-05-01T14:07:01.885Z,14.10
2018-05-01T14:08:07.609Z,10.88
2018-05-01T14:09:14.276Z,10.68
2018-05-01T14:10:19.683Z,11.57
2018-05-01T14:11:25.367Z,11.73
2018-05-01T14:12:31.310Z,11.23